createdAt,value
2019-04-26T00:02:12.295Z,3.40
2019-04-26T00:04:41.731Z,3.30
2019-04-26T00:07:11.166Z,3.02
2019-04-26T00:09:41.710Z,3.37
2019-04-26T00:12:27.766Z,2.87
2019-04-26T00:15:16.392Z,3.05
2019-04-26T00:17:47.752Z,3.22
2019-04-26T00:20:17.149Z,3.30
2019-04-26T00:22:46.368Z,3.40
2019-04-26T00:25:16.534Z,3.52
2019-04-26T00:27:45.854Z,2.83
2019-04-26T00:30:15.550Z,3.22
2019-04-26T00:32:44.747Z,2.72
2019-04-26T00:35:14.081Z,3.05
2019-04-26T00:37:43.254Z,3.15
2019-04-26T00:40:13.343Z,3.10
2019-04-26T00:42:43.645Z,3.08
2019-04-26T00:45:13.997Z,3.00
2019-04-26T00:47:44.080Z,3.37
2019-04-26T00:50:13.911Z,3.45
2019-04-26T00:52:44.310Z,3.35
2019-04-26T00:55:14.315Z,3.12
2019-04-26T00:57:43.736Z,3.10
2019-04-26T01:00:15.406Z,3.42
2019-04-26T01:02:52.949Z,3.35
2019-04-26T01:05:23.056Z,3.10
2019-04-26T01:07:54.010Z,3.22
2019-04-26T01:10:23.821Z,3.15
2019-04-26T01:12:53.045Z,3.65
2019-04-26T01:15:23.311Z,3.12
2019-04-26T01:17:53.188Z,3.12
2019-04-26T01:20:22.581Z,3.05
2019-04-26T01:22:52.226Z,3.65
2019-04-26T01:25:49.080Z,3.30
2019-04-26T01:28:31.888Z,3.45
2019-04-26T01:31:01.862Z,3.37
2019-04-26T01:33:31.149Z,3.25
2019-04-26T01:36:12.128Z,3.40
2019-04-26T01:38:31.929Z,2.92
2019-04-26T01:41:02.804Z,3.87
2019-04-26T01:43:42.955Z,3.25
2019-04-26T01:46:31.036Z,3.80
2019-04-26T01:49:04.132Z,3.42
2019-04-26T01:51:50.204Z,3.70
2019-04-26T01:54:23.085Z,3.65
2019-04-26T01:56:56.028Z,3.17
2019-04-26T01:59:25.365Z,3.65
2019-04-26T02:01:56.206Z,3.67
2019-04-26T02:04:27.805Z,3.22
2019-04-26T02:06:57.158Z,3.30
2019-04-26T02:09:26.388Z,3.30
2019-04-26T02:11:55.643Z,2.72
2019-04-26T02:14:25.291Z,3.17
2019-04-26T02:16:54.583Z,3.60
2019-04-26T02:19:24.853Z,3.30
2019-04-26T02:21:56.604Z,2.98
2019-04-26T02:24:28.262Z,3.30
2019-04-26T02:26:57.497Z,2.98
2019-04-26T02:29:27.094Z,3.45
2019-04-26T02:31:59.825Z,4.05
2019-04-26T02:34:30.814Z,4.03
2019-04-26T02:37:02.173Z,3.87
2019-04-26T02:39:39.885Z,3.65
2019-04-26T02:42:30.982Z,3.35
2019-04-26T02:45:41.472Z,3.25
2019-04-26T02:48:29.080Z,3.47
2019-04-26T02:51:19.104Z,3.58
2019-04-26T02:54:04.975Z,3.77
2019-04-26T02:56:40.148Z,3.17
2019-04-26T02:59:20.049Z,3.30
2019-04-26T03:01:49.840Z,3.90
2019-04-26T03:04:19.113Z,3.85
2019-04-26T03:07:02.183Z,3.25
2019-04-26T03:09:19.282Z,3.52
2019-04-26T03:11:56.306Z,3.70
2019-04-26T03:14:27.148Z,3.60
2019-04-26T03:17:08.891Z,3.33
2019-04-26T03:20:07.254Z,3.55
2019-04-26T03:23:13.565Z,3.00
2019-04-26T03:26:13.340Z,3.72
2019-04-26T03:28:49.349Z,4.30
2019-04-26T03:31:42.953Z,3.83
2019-04-26T03:34:40.490Z,3.08
2019-04-26T03:37:36.609Z,3.30
2019-04-26T03:40:20.435Z,4.58
2019-04-26T03:43:15.800Z,4.62
2019-04-26T03:46:10.774Z,4.53
2019-04-26T03:49:24.031Z,4.03
2019-04-26T03:52:12.954Z,3.80
2019-04-26T03:54:42.820Z,3.75
2019-04-26T03:57:57.913Z,4.67
2019-04-26T04:00:42.786Z,4.17
2019-04-26T04:03:26.606Z,4.53
2019-04-26T04:05:57.025Z,3.90
2019-04-26T04:08:46.693Z,4.62
2019-04-26T04:11:20.714Z,5.30
2019-04-26T04:14:13.068Z,4.83
2019-04-26T04:16:54.205Z,4.22
2019-04-26T04:20:15.048Z,5.00
2019-04-26T04:22:49.419Z,3.60
2019-04-26T04:25:39.498Z,3.65
2019-04-26T04:28:31.398Z,3.80
2019-04-26T04:31:17.116Z,3.58
2019-04-26T04:34:11.097Z,3.80
2019-04-26T04:36:48.251Z,4.47
2019-04-26T04:39:35.787Z,3.62
2019-04-26T04:42:19.771Z,4.03
2019-04-26T04:45:07.157Z,4.33
2019-04-26T04:48:17.954Z,4.72
2019-04-26T04:51:22.138Z,5.10
2019-04-26T04:57:22.830Z,3.95
2019-04-26T05:00:28.855Z,4.65
2019-04-26T05:03:28.327Z,4.28
2019-04-26T05:06:13.036Z,4.58
2019-04-26T05:08:58.066Z,4.60
2019-04-26T05:11:53.918Z,4.03
2019-04-26T05:15:09.321Z,4.72
2019-04-26T05:17:52.375Z,4.20
2019-04-26T05:20:35.195Z,4.55
2019-04-26T05:23:27.520Z,4.95
2019-04-26T05:26:23.804Z,4.90
2019-04-26T05:29:27.821Z,4.60
2019-04-26T05:32:50.711Z,4.33
2019-04-26T05:35:51.043Z,3.83
2019-04-26T05:39:00.005Z,4.25
2019-04-26T05:42:10.310Z,4.50
2019-04-26T05:45:11.280Z,3.77
2019-04-26T05:48:09.343Z,4.30
2019-04-26T05:51:05.848Z,4.33
2019-04-26T05:54:37.516Z,5.95
2019-04-26T05:57:23.734Z,5.20
2019-04-26T06:00:31.688Z,4.80
2019-04-26T06:03:45.094Z,4.55
2019-04-26T06:06:36.087Z,4.65
2019-04-26T06:09:38.071Z,5.20
2019-04-26T06:12:31.528Z,4.90
2019-04-26T06:15:24.894Z,4.53
2019-04-26T06:18:27.610Z,4.42
2019-04-26T06:21:12.565Z,5.10
2019-04-26T06:23:52.801Z,4.55
2019-04-26T06:26:44.567Z,5.50
2019-04-26T06:29:32.757Z,5.58
2019-04-26T06:32:21.328Z,5.30
2019-04-26T06:35:20.162Z,5.10
2019-04-26T06:38:43.493Z,4.97
2019-04-26T06:42:06.020Z,5.35
2019-04-26T06:45:02.907Z,5.60
2019-04-26T06:47:43.886Z,5.80
2019-04-26T06:50:52.927Z,5.65
2019-04-26T06:53:45.970Z,5.62
2019-04-26T06:57:07.958Z,5.33
2019-04-26T07:00:00.886Z,5.30
2019-04-26T07:02:44.156Z,5.53
2019-04-26T07:05:26.327Z,6.12
2019-04-26T07:08:22.355Z,5.12
2019-04-26T07:11:36.068Z,5.25
2019-04-26T07:14:40.980Z,5.50
2019-04-26T07:17:46.831Z,5.15
2019-04-26T07:20:18.614Z,5.35
2019-04-26T07:23:31.670Z,4.78
2019-04-26T07:26:31.281Z,6.30
2019-04-26T07:29:40.416Z,4.83
2019-04-26T07:32:23.091Z,4.97
2019-04-26T07:35:27.735Z,5.13
2019-04-26T07:38:47.129Z,4.67
2019-04-26T07:41:51.547Z,4.87
2019-04-26T07:44:58.825Z,5.20
2019-04-26T07:48:17.229Z,5.12
2019-04-26T07:51:26.149Z,4.33
2019-04-26T07:54:39.292Z,4.65
2019-04-26T07:57:40.700Z,4.58
2019-04-26T08:00:45.143Z,5.30
2019-04-26T08:03:30.393Z,5.10
2019-04-26T08:06:21.518Z,4.83
2019-04-26T08:09:05.952Z,4.90
2019-04-26T08:11:50.700Z,5.30
2019-04-26T08:14:47.533Z,4.55
2019-04-26T08:17:24.845Z,5.30
2019-04-26T08:20:11.018Z,5.17
2019-04-26T08:22:40.573Z,4.55
2019-04-26T08:25:10.386Z,5.15
2019-04-26T08:27:39.915Z,4.80
2019-04-26T08:30:17.465Z,4.47
2019-04-26T08:32:56.378Z,5.15
2019-04-26T08:35:29.746Z,4.83
2019-04-26T08:38:02.048Z,4.87
2019-04-26T08:40:31.673Z,5.23
2019-04-26T08:43:20.202Z,4.55
2019-04-26T08:46:03.133Z,5.08
2019-04-26T08:48:46.618Z,5.50
2019-04-26T08:51:20.965Z,4.55
2019-04-26T08:53:52.675Z,4.90
2019-04-26T08:56:35.772Z,4.85
2019-04-26T08:59:26.306Z,5.25
2019-04-26T09:02:05.860Z,4.50
2019-04-26T09:04:39.432Z,4.78
2019-04-26T09:07:10.559Z,4.70
2019-04-26T09:09:40.091Z,4.83
2019-04-26T09:12:22.843Z,4.42
2019-04-26T09:14:49.258Z,5.00
2019-04-26T09:17:18.498Z,4.40
2019-04-26T09:19:47.869Z,4.20
2019-04-26T09:22:22.513Z,4.40
2019-04-26T09:24:55.157Z,3.45
2019-04-26T09:27:30.089Z,3.90
2019-04-26T09:30:17.422Z,3.83
2019-04-26T09:32:48.523Z,3.42
2019-04-26T09:35:17.728Z,4.25
2019-04-26T09:37:46.905Z,3.70
2019-04-26T09:40:21.701Z,3.00
2019-04-26T09:42:48.630Z,2.70
2019-04-26T09:45:25.614Z,3.00
2019-04-26T09:48:02.640Z,3.12
2019-04-26T09:50:33.481Z,2.42
2019-04-26T09:53:02.648Z,2.42
2019-04-26T09:55:35.514Z,2.20
2019-04-26T09:58:02.867Z,2.22
2019-04-26T10:00:32.340Z,2.00
2019-04-26T10:03:01.511Z,2.10
2019-04-26T10:05:30.705Z,2.30
2019-04-26T10:07:59.875Z,1.95
2019-04-26T10:10:30.890Z,2.20
2019-04-26T10:13:02.689Z,2.20
2019-04-26T10:15:39.363Z,2.52
2019-04-26T10:18:08.594Z,2.27
2019-04-26T10:20:37.939Z,2.52
2019-04-26T10:23:07.320Z,2.35
2019-04-26T10:25:36.660Z,2.42
2019-04-26T10:28:06.039Z,2.40
2019-04-26T10:30:38.298Z,2.15
2019-04-26T10:33:06.572Z,1.90
2019-04-26T10:35:35.774Z,2.08
2019-04-26T10:38:05.012Z,1.80
2019-04-26T10:40:35.739Z,2.42
2019-04-26T10:43:06.148Z,2.00
2019-04-26T10:45:35.472Z,2.25
2019-04-26T10:48:05.479Z,2.30
2019-04-26T10:50:34.740Z,2.12
2019-04-26T10:53:14.346Z,2.42
2019-04-26T10:55:46.535Z,1.90
2019-04-26T10:58:27.056Z,2.22
2019-04-26T11:01:04.032Z,2.62
2019-04-26T11:03:34.997Z,2.27
2019-04-26T11:06:04.789Z,2.20
2019-04-26T11:08:33.972Z,2.22
2019-04-26T11:11:03.137Z,2.45
2019-04-26T11:13:32.410Z,2.10
2019-04-26T11:16:02.398Z,2.40
2019-04-26T11:18:32.522Z,1.85
2019-04-26T11:21:01.992Z,2.98
2019-04-26T11:23:31.195Z,2.35
2019-04-26T11:26:01.713Z,1.92
2019-04-26T11:28:31.515Z,2.40
2019-04-26T11:31:01.056Z,2.10
2019-04-26T11:33:30.261Z,2.35
2019-04-26T11:35:59.529Z,2.20
2019-04-26T11:38:31.217Z,2.65
2019-04-26T11:41:06.305Z,2.65
2019-04-26T11:43:30.675Z,2.50
2019-04-26T11:46:04.652Z,2.60
2019-04-26T11:48:30.897Z,2.33
2019-04-26T11:51:00.063Z,2.92
2019-04-26T11:53:29.579Z,2.45
2019-04-26T11:56:00.256Z,2.45
2019-04-26T11:58:30.025Z,2.17
2019-04-26T12:01:00.858Z,2.40
2019-04-26T12:03:30.056Z,2.37
2019-04-26T12:06:03.853Z,2.55
2019-04-26T12:08:49.782Z,2.52
2019-04-26T12:11:25.691Z,2.55
2019-04-26T12:13:49.875Z,3.10
2019-04-26T12:16:20.394Z,2.90
2019-04-26T12:18:50.063Z,3.00
2019-04-26T12:21:19.377Z,3.00
2019-04-26T12:23:51.363Z,2.83
2019-04-26T12:26:21.617Z,3.25
2019-04-26T12:28:50.402Z,2.80
2019-04-26T12:31:20.385Z,2.87
2019-04-26T12:33:49.587Z,2.62
2019-04-26T12:36:18.959Z,2.75
2019-04-26T12:38:48.156Z,3.12
2019-04-26T12:41:22.194Z,2.92
2019-04-26T12:43:49.257Z,3.50
2019-04-26T12:46:22.681Z,5.10
2019-04-26T12:48:51.412Z,3.40
2019-04-26T12:51:20.683Z,3.40
2019-04-26T12:53:49.881Z,3.75
2019-04-26T12:56:19.051Z,3.70
2019-04-26T12:58:49.985Z,3.42
2019-04-26T13:01:19.505Z,3.60
2019-04-26T13:04:04.513Z,3.33
2019-04-26T13:06:38.784Z,3.42
2019-04-26T13:09:17.528Z,4.00
2019-04-26T13:11:56.510Z,4.03
2019-04-26T13:14:33.082Z,4.03
2019-04-26T13:17:19.183Z,4.50
2019-04-26T13:19:49.465Z,4.87
2019-04-26T13:22:19.299Z,4.50
2019-04-26T13:24:48.690Z,4.92
2019-04-26T13:27:17.860Z,4.03
2019-04-26T13:29:48.330Z,4.28
2019-04-26T13:32:18.103Z,4.58
2019-04-26T13:34:47.295Z,5.08
2019-04-26T13:37:16.473Z,4.90
2019-04-26T13:39:45.676Z,5.60
2019-04-26T13:42:17.545Z,5.25
2019-04-26T13:44:53.870Z,5.65
2019-04-26T13:47:43.176Z,5.72
2019-04-26T13:50:22.370Z,5.03
2019-04-26T13:52:52.095Z,5.40
2019-04-26T13:55:25.400Z,5.40
2019-04-26T13:57:52.782Z,5.25
2019-04-26T14:00:23.948Z,4.80
2019-04-26T14:02:53.437Z,5.55
2019-04-26T14:05:23.024Z,5.67
2019-04-26T14:07:52.474Z,5.70
2019-04-26T14:10:21.926Z,6.17
2019-04-26T14:12:51.680Z,5.28
2019-04-26T14:15:21.139Z,6.22
2019-04-26T14:17:50.617Z,5.67
2019-04-26T14:20:23.333Z,5.53
2019-04-26T14:23:11.391Z,6.15
2019-04-26T14:26:01.212Z,6.62
2019-04-26T14:28:30.524Z,6.30
2019-04-26T14:31:00.057Z,6.00
2019-04-26T14:33:30.958Z,6.45
2019-04-26T14:36:00.841Z,6.05
2019-04-26T14:38:39.253Z,7.75
2019-04-26T14:41:03.955Z,6.08
2019-04-26T14:43:40.497Z,5.50
2019-04-26T14:46:03.645Z,5.50
2019-04-26T14:48:36.089Z,7.25
2019-04-26T14:51:08.190Z,6.22
2019-04-26T14:53:36.616Z,6.10
2019-04-26T14:56:07.021Z,5.25
2019-04-26T14:58:36.431Z,4.60
2019-04-26T15:01:07.455Z,4.33
2019-04-26T15:03:57.122Z,4.37
2019-04-26T15:06:28.877Z,4.37
2019-04-26T15:08:58.370Z,6.80
2019-04-26T15:11:27.754Z,4.70
2019-04-26T15:13:57.310Z,4.95
2019-04-26T15:16:26.752Z,4.00
2019-04-26T15:18:56.096Z,3.50
2019-04-26T15:21:27.305Z,3.75
2019-04-26T15:23:59.376Z,3.60
2019-04-26T15:26:29.991Z,3.77
2019-04-26T15:28:59.676Z,3.87
2019-04-26T15:31:29.227Z,3.10
2019-04-26T15:33:58.577Z,3.50
2019-04-26T15:36:28.021Z,3.30
2019-04-26T15:38:58.613Z,7.28
2019-04-26T15:41:35.181Z,4.53
2019-04-26T15:44:24.785Z,2.67
2019-04-26T15:46:58.376Z,2.92
2019-04-26T15:49:34.171Z,2.72
2019-04-26T15:52:00.925Z,2.35
2019-04-26T15:54:32.008Z,3.45
2019-04-26T15:57:02.149Z,3.77
2019-04-26T15:59:32.920Z,3.25
2019-04-26T16:02:02.677Z,2.95
2019-04-26T16:04:32.478Z,3.10
2019-04-26T16:07:02.561Z,3.05
2019-04-26T16:09:32.478Z,3.10
2019-04-26T16:12:03.629Z,2.80
2019-04-26T16:14:36.443Z,2.83
2019-04-26T16:17:06.621Z,2.98
2019-04-26T16:19:36.572Z,2.67
2019-04-26T16:22:06.483Z,3.10
2019-04-26T16:24:36.181Z,3.47
2019-04-26T16:27:05.962Z,2.70
2019-04-26T16:29:51.008Z,3.67
2019-04-26T16:32:25.014Z,6.22
2019-04-26T16:34:54.517Z,3.70
2019-04-26T16:37:27.389Z,2.80
2019-04-26T16:39:57.162Z,2.42
2019-04-26T16:42:26.612Z,2.60
2019-04-26T16:44:56.042Z,2.10
2019-04-26T16:47:25.416Z,3.77
2019-04-26T16:49:54.812Z,3.37
2019-04-26T16:52:24.293Z,3.10
2019-04-26T16:55:02.480Z,3.55
2019-04-26T16:57:24.880Z,2.80
2019-04-26T17:00:35.776Z,7.47
2019-04-26T17:02:27.805Z,7.50
2019-04-26T17:04:56.397Z,12.33
2019-04-26T17:07:27.352Z,3.62
2019-04-26T17:09:59.387Z,2.37
2019-04-26T17:12:28.195Z,2.62
2019-04-26T17:14:57.613Z,3.20
2019-04-26T17:17:27.178Z,4.37
2019-04-26T17:19:56.506Z,4.60
2019-04-26T17:22:55.754Z,3.55
2019-04-26T17:25:26.601Z,4.65
2019-04-26T17:27:54.153Z,3.10
2019-04-26T17:30:25.298Z,2.70
2019-04-26T17:32:55.398Z,3.98
2019-04-26T17:35:25.541Z,3.90
2019-04-26T17:37:57.462Z,2.83
2019-04-26T17:40:31.072Z,2.75
2019-04-26T17:42:57.401Z,3.08
2019-04-26T17:45:26.763Z,3.87
2019-04-26T17:47:56.185Z,4.03
2019-04-26T17:50:25.655Z,4.65
2019-04-26T17:52:54.990Z,4.40
2019-04-26T17:55:24.434Z,3.15
2019-04-26T17:58:08.158Z,3.60
2019-04-26T18:00:27.273Z,3.08
2019-04-26T18:02:57.316Z,3.20
2019-04-26T18:05:41.812Z,3.08
2019-04-26T18:07:59.651Z,3.00
2019-04-26T18:10:31.136Z,3.90
2019-04-26T18:13:00.474Z,3.50
2019-04-26T18:15:29.985Z,9.65
2019-04-26T18:18:14.372Z,12.00
2019-04-26T18:21:02.936Z,6.15
2019-04-26T18:23:33.907Z,4.45
2019-04-26T18:26:03.563Z,9.58
2019-04-26T18:28:33.962Z,7.75
2019-04-26T18:31:05.603Z,4.42
2019-04-26T18:33:35.209Z,7.15
2019-04-26T18:36:04.845Z,3.17
2019-04-26T18:38:35.017Z,3.62
2019-04-26T18:41:04.524Z,3.20
2019-04-26T18:43:33.900Z,3.35
2019-04-26T18:46:17.258Z,3.50
2019-04-26T18:48:46.614Z,2.72
2019-04-26T18:51:15.984Z,2.90
2019-04-26T18:54:05.265Z,3.30
2019-04-26T18:56:40.503Z,3.08
2019-04-26T18:59:11.728Z,2.95
2019-04-26T19:01:41.779Z,3.55
2019-04-26T19:04:14.927Z,3.20
2019-04-26T19:06:43.449Z,3.17
2019-04-26T19:09:13.788Z,3.05
2019-04-26T19:11:48.472Z,3.90
2019-04-26T19:14:32.971Z,4.92
2019-04-26T19:17:06.870Z,5.08
2019-04-26T19:19:41.866Z,4.95
2019-04-26T19:22:15.876Z,4.62
2019-04-26T19:24:42.471Z,5.45
2019-04-26T19:27:12.492Z,5.35
2019-04-26T19:29:43.351Z,5.55
2019-04-26T19:32:12.875Z,6.03
2019-04-26T19:34:42.271Z,5.65
2019-04-26T19:37:11.669Z,5.30
2019-04-26T19:39:42.751Z,5.08
2019-04-26T19:42:12.614Z,4.70
2019-04-26T19:44:42.171Z,3.55
2019-04-26T19:47:22.780Z,3.45
2019-04-26T19:49:56.557Z,4.00
2019-04-26T19:52:39.362Z,4.60
2019-04-26T19:55:24.214Z,4.65
2019-04-26T19:57:55.166Z,4.05
2019-04-26T20:00:25.239Z,4.40
2019-04-26T20:02:54.671Z,4.70
2019-04-26T20:05:44.080Z,5.40
2019-04-26T20:08:13.711Z,4.95
2019-04-26T20:10:45.514Z,4.40
2019-04-26T20:13:16.214Z,9.15
2019-04-26T20:15:45.473Z,16.17
2019-04-26T20:18:17.452Z,12.13
2019-04-26T20:20:46.481Z,7.80
2019-04-26T20:23:15.895Z,5.85
2019-04-26T20:25:45.297Z,5.45
2019-04-26T20:28:14.640Z,5.92
2019-04-26T20:31:07.140Z,5.50
2019-04-26T20:33:31.179Z,5.62
2019-04-26T20:36:01.910Z,5.50
2019-04-26T20:38:35.862Z,5.87
2019-04-26T20:41:02.442Z,5.70
2019-04-26T20:43:32.202Z,6.00
2019-04-26T20:46:13.779Z,6.75
2019-04-26T20:48:33.241Z,6.40
2019-04-26T20:51:06.531Z,6.45
2019-04-26T20:53:40.091Z,6.28
2019-04-26T20:56:09.447Z,5.67
2019-04-26T20:58:37.451Z,5.47
2019-04-26T21:01:12.399Z,5.83
2019-04-26T21:03:42.833Z,6.17
2019-04-26T21:06:11.494Z,5.83
2019-04-26T21:08:42.401Z,5.97
2019-04-26T21:11:13.669Z,5.65
2019-04-26T21:13:43.303Z,6.30
2019-04-26T21:16:15.221Z,6.78
2019-04-26T21:18:44.505Z,6.30
2019-04-26T21:21:15.959Z,6.33
2019-04-26T21:23:47.147Z,6.30
2019-04-26T21:26:34.591Z,5.95
2019-04-26T21:29:15.488Z,6.70
2019-04-26T21:31:53.054Z,7.00
2019-04-26T21:34:24.044Z,6.60
2019-04-26T21:37:01.152Z,7.08
2019-04-26T21:39:48.715Z,7.20
2019-04-26T21:42:21.083Z,6.50
2019-04-26T21:44:52.427Z,6.72
2019-04-26T21:47:20.445Z,6.22
2019-04-26T21:49:52.733Z,6.67
2019-04-26T21:52:25.310Z,6.90
2019-04-26T21:54:53.230Z,6.05
2019-04-26T21:57:27.757Z,6.80
2019-04-26T21:59:54.519Z,7.37
2019-04-26T22:02:25.511Z,6.65
2019-04-26T22:04:55.135Z,7.03
2019-04-26T22:07:24.577Z,7.10
2019-04-26T22:10:05.131Z,7.17
2019-04-26T22:12:35.865Z,6.70
2019-04-26T22:15:23.515Z,6.42
2019-04-26T22:18:00.448Z,7.20
2019-04-26T22:20:34.089Z,7.53
2019-04-26T22:23:16.343Z,7.03
2019-04-26T22:25:46.686Z,6.85
2019-04-26T22:28:16.142Z,6.83
2019-04-26T22:30:45.623Z,6.53
2019-04-26T22:33:15.063Z,6.85
2019-04-26T22:35:44.465Z,7.50
2019-04-26T22:38:17.542Z,6.90
2019-04-26T22:40:48.548Z,6.85
2019-04-26T22:43:20.843Z,7.22
2019-04-26T22:45:54.781Z,7.72
2019-04-26T22:48:28.209Z,7.45
2019-04-26T22:50:58.683Z,7.15
2019-04-26T22:53:28.620Z,7.25
2019-04-26T22:56:01.337Z,7.42
2019-04-26T22:58:29.875Z,7.65
2019-04-26T23:01:03.488Z,8.35
2019-04-26T23:03:30.738Z,8.53
2019-04-26T23:06:00.243Z,8.38
2019-04-26T23:08:30.835Z,8.35
2019-04-26T23:11:02.378Z,7.85
2019-04-26T23:13:33.895Z,8.28
2019-04-26T23:16:21.193Z,8.15
2019-04-26T23:18:53.626Z,7.80
2019-04-26T23:21:35.775Z,8.65
2019-04-26T23:24:05.221Z,8.58
2019-04-26T23:26:37.544Z,8.88
2019-04-26T23:29:08.649Z,8.38
2019-04-26T23:31:37.535Z,8.58
2019-04-26T23:34:06.898Z,9.18
2019-04-26T23:36:36.658Z,8.38
2019-04-26T23:39:11.641Z,8.63
2019-04-26T23:41:41.626Z,6.53
2019-04-26T23:44:09.666Z,8.68
2019-04-26T23:46:39.051Z,9.08
2019-04-26T23:49:08.536Z,8.58
2019-04-26T23:51:38.326Z,9.95
2019-04-26T23:54:09.109Z,9.60
2019-04-26T23:56:38.484Z,9.48
2019-04-26T23:59:07.904Z,10.08
